createdAt,value
2023-05-03T00:01:00.999Z,101578.88
2023-05-03T00:02:03.232Z,101578.03
2023-05-03T00:03:06.903Z,101578.03
2023-05-03T00:04:08.827Z,101579.03
2023-05-03T00:05:17.834Z,101578.03
2023-05-03T00:06:20.009Z,101577.03
2023-05-03T00:07:23.014Z,101578.16
2023-05-03T00:08:25.012Z,101579.03
2023-05-03T00:09:26.823Z,101574.78
2023-05-03T00:10:29.460Z,101583.69
2023-05-03T00:11:31.298Z,101580.13
2023-05-03T00:12:33.079Z,101582.00
2023-05-03T00:13:35.131Z,101589.19
2023-05-03T00:14:37.174Z,101591.03
2023-05-03T00:15:38.915Z,101597.41
2023-05-03T00:16:41.049Z,101588.47
2023-05-03T00:17:43.034Z,101589.47
2023-05-03T00:18:46.045Z,101584.38
2023-05-03T00:19:48.628Z,101597.41
2023-05-03T00:20:51.258Z,101592.16
2023-05-03T00:21:53.144Z,101586.09
2023-05-03T00:22:54.902Z,101595.00
2023-05-03T00:23:56.802Z,101599.38
2023-05-03T00:25:00.404Z,101596.81
2023-05-03T00:26:02.182Z,101603.06
2023-05-03T00:27:05.327Z,101594.28
2023-05-03T00:28:07.256Z,101599.25
2023-05-03T00:29:09.026Z,101602.34
2023-05-03T00:30:11.888Z,101597.09
2023-05-03T00:31:13.810Z,101598.09
2023-05-03T00:32:15.947Z,101602.47
2023-05-03T00:33:18.008Z,101601.63
2023-05-03T00:34:19.750Z,101606.16
2023-05-03T00:35:21.829Z,101567.22
2023-05-03T00:36:23.767Z,101602.63
2023-05-03T00:37:26.006Z,101596.94
2023-05-03T00:38:27.833Z,101602.75
2023-05-03T00:39:33.380Z,101611.75
2023-05-03T00:40:35.559Z,101608.25
2023-05-03T00:41:39.355Z,101611.88
2023-05-03T00:42:41.171Z,101610.06
2023-05-03T00:43:42.957Z,101600.72
2023-05-03T00:44:44.877Z,101615.56
2023-05-03T00:45:47.685Z,101615.72
2023-05-03T00:46:50.030Z,101614.72
2023-05-03T00:47:52.087Z,101620.94
2023-05-03T00:48:54.350Z,101620.22
2023-05-03T00:49:56.483Z,101610.03
2023-05-03T00:50:58.697Z,101623.91
2023-05-03T00:52:01.435Z,101625.75
2023-05-03T00:53:03.265Z,101625.75
2023-05-03T00:54:05.079Z,101623.19
2023-05-03T00:55:08.351Z,101621.50
2023-05-03T00:56:12.022Z,101623.19
2023-05-03T00:57:14.653Z,101626.75
2023-05-03T00:58:16.578Z,101614.69
2023-05-03T00:59:19.004Z,101627.00
2023-05-03T01:00:22.240Z,101634.06
2023-05-03T01:01:25.378Z,101631.41
2023-05-03T01:02:28.371Z,101625.31
2023-05-03T01:03:30.556Z,101621.22
2023-05-03T01:04:32.903Z,101626.59
2023-05-03T01:06:01.213Z,101634.19
2023-05-03T01:07:30.967Z,101635.34
2023-05-03T01:08:41.403Z,101636.06
2023-05-03T01:09:51.893Z,101636.31
2023-05-03T01:11:07.816Z,101635.63
2023-05-03T01:12:12.600Z,101640.16
2023-05-03T01:13:32.443Z,101644.66
2023-05-03T01:14:47.068Z,101642.84
2023-05-03T01:16:12.996Z,101642.84
2023-05-03T01:17:15.588Z,101649.03
2023-05-03T01:18:26.963Z,101641.41
2023-05-03T01:19:35.214Z,101650.47
2023-05-03T01:20:38.110Z,101636.72
2023-05-03T01:21:42.804Z,101652.56
2023-05-03T01:23:11.049Z,101653.00
2023-05-03T01:24:22.089Z,101640.28
2023-05-03T01:25:24.496Z,101654.97
2023-05-03T01:26:27.736Z,101645.78
2023-05-03T01:27:29.499Z,101653.69
2023-05-03T01:28:31.231Z,101653.81
2023-05-03T01:29:32.982Z,101652.41
2023-05-03T01:30:36.862Z,101663.00
2023-05-03T01:31:59.885Z,101659.91
2023-05-03T01:33:08.969Z,101659.91
2023-05-03T01:34:32.246Z,101664.00
2023-05-03T01:35:44.007Z,101663.28
2023-05-03T01:36:46.269Z,101663.28
2023-05-03T01:37:49.116Z,101658.34
2023-05-03T01:38:51.003Z,101666.53
2023-05-03T01:40:04.610Z,101651.81
2023-05-03T01:41:11.750Z,101666.53
2023-05-03T01:42:15.538Z,101658.59
2023-05-03T01:43:19.362Z,101661.44
2023-05-03T01:44:23.643Z,101665.13
2023-05-03T01:45:26.726Z,101659.75
2023-05-03T01:46:29.447Z,101665.13
2023-05-03T01:47:31.758Z,101666.22
2023-05-03T01:48:34.371Z,101673.44
2023-05-03T01:49:37.586Z,101674.25
2023-05-03T01:50:39.458Z,101667.63
2023-05-03T01:51:41.274Z,101663.25
2023-05-03T01:52:44.974Z,101672.72
2023-05-03T01:53:46.726Z,101677.22
2023-05-03T01:54:48.484Z,101673.84
2023-05-03T01:55:50.494Z,101636.50
2023-05-03T01:56:52.621Z,101679.06
2023-05-03T01:57:55.573Z,101680.91
2023-05-03T01:58:57.395Z,101671.56
2023-05-03T01:59:59.179Z,101685.44
2023-05-03T02:01:01.269Z,101685.44
2023-05-03T02:02:04.973Z,101690.78
2023-05-03T02:03:06.893Z,101689.09
2023-05-03T02:04:08.846Z,101683.72
2023-05-03T02:05:12.302Z,101682.88
2023-05-03T02:06:14.146Z,101687.41
2023-05-03T02:07:15.996Z,101686.53
2023-05-03T02:08:17.870Z,101697.28
2023-05-03T02:09:19.727Z,101692.88
2023-05-03T02:10:21.625Z,101691.06
2023-05-03T02:11:23.434Z,101692.06
2023-05-03T02:12:25.404Z,101692.06
2023-05-03T02:13:27.147Z,101693.88
2023-05-03T02:14:28.911Z,101693.03
2023-05-03T02:15:31.994Z,101687.69
2023-05-03T02:16:33.805Z,101652.41
2023-05-03T02:17:35.907Z,101682.97
2023-05-03T02:18:39.778Z,101695.72
2023-05-03T02:19:42.739Z,101689.66
2023-05-03T02:20:47.587Z,101692.19
2023-05-03T02:21:49.546Z,101690.34
2023-05-03T02:22:51.348Z,101690.47
2023-05-03T02:23:54.304Z,101693.31
2023-05-03T02:24:57.144Z,101702.06
2023-05-03T02:25:58.899Z,101693.16
2023-05-03T02:27:00.798Z,101694.16
2023-05-03T02:28:03.272Z,101689.31
2023-05-03T02:29:05.043Z,101697.81
2023-05-03T02:30:09.017Z,101698.69
2023-05-03T02:31:16.487Z,101699.66
2023-05-03T02:32:18.863Z,101686.75
2023-05-03T02:33:21.983Z,101707.72
2023-05-03T02:34:24.340Z,101704.31
2023-05-03T02:35:27.085Z,101708.69
2023-05-03T02:36:29.042Z,101705.16
2023-05-03T02:37:31.584Z,101695.53
2023-05-03T02:38:34.603Z,101702.59
2023-05-03T02:39:36.432Z,101687.91
2023-05-03T02:40:42.310Z,101695.53
2023-05-03T02:41:44.318Z,101690.16
2023-05-03T02:42:47.408Z,101695.53
2023-05-03T02:43:53.381Z,101701.88
2023-05-03T02:44:55.182Z,101704.56
2023-05-03T02:45:58.736Z,101700.16
2023-05-03T02:47:01.057Z,101705.53
2023-05-03T02:48:03.141Z,101699.47
2023-05-03T02:49:06.116Z,101706.53
2023-05-03T02:50:08.561Z,101686.84
2023-05-03T02:51:14.026Z,101702.03
2023-05-03T02:52:15.842Z,101703.00
2023-05-03T02:53:17.804Z,101704.81
2023-05-03T02:54:20.290Z,101696.78
2023-05-03T02:55:22.858Z,101687.56
2023-05-03T02:56:26.627Z,101691.13
2023-05-03T02:57:28.683Z,101707.50
2023-05-03T02:58:32.217Z,101702.13
2023-05-03T02:59:36.898Z,101711.88
2023-05-03T03:00:39.102Z,101665.16
2023-05-03T03:01:40.996Z,101709.34
2023-05-03T03:02:43.475Z,101707.50
2023-05-03T03:03:46.004Z,101719.22
2023-05-03T03:04:47.891Z,101716.53
2023-05-03T03:05:49.664Z,101709.03
2023-05-03T03:06:53.539Z,101722.88
2023-05-03T03:07:55.697Z,101724.84
2023-05-03T03:08:58.803Z,101722.88
2023-05-03T03:10:00.883Z,101716.50
2023-05-03T03:11:05.294Z,101729.22
2023-05-03T03:12:08.062Z,101729.13
2023-05-03T03:13:10.122Z,101732.78
2023-05-03T03:14:13.732Z,101724.56
2023-05-03T03:15:15.825Z,101730.22
2023-05-03T03:16:17.712Z,101736.56
2023-05-03T03:17:19.585Z,101734.75
2023-05-03T03:18:21.541Z,101736.13
2023-05-03T03:19:23.387Z,101741.94
2023-05-03T03:20:25.334Z,101739.41
2023-05-03T03:21:29.046Z,101745.59
2023-05-03T03:22:31.296Z,101749.97
2023-05-03T03:23:33.177Z,101729.59
2023-05-03T03:24:35.798Z,101742.91
2023-05-03T03:25:38.342Z,101746.59
2023-05-03T03:26:40.147Z,101747.56
2023-05-03T03:27:42.128Z,101733.00
2023-05-03T03:28:44.073Z,101739.53
2023-05-03T03:29:46.937Z,101746.72
2023-05-03T03:30:49.460Z,101736.38
2023-05-03T03:31:58.033Z,101749.25
2023-05-03T03:32:59.983Z,101750.25
2023-05-03T03:34:08.839Z,101751.69
2023-05-03T03:35:10.960Z,101749.81
2023-05-03T03:36:12.755Z,101761.84
2023-05-03T03:37:18.102Z,101758.28
2023-05-03T03:38:19.931Z,101762.81
2023-05-03T03:39:28.993Z,101759.00
2023-05-03T03:40:30.962Z,101765.34
2023-05-03T03:41:33.595Z,101753.47
2023-05-03T03:42:36.437Z,101765.50
2023-05-03T03:43:39.236Z,101770.00
2023-05-03T03:44:45.836Z,101766.34
2023-05-03T03:45:48.524Z,101770.88
2023-05-03T03:46:51.703Z,101765.50
2023-05-03T03:47:54.132Z,101762.81
2023-05-03T03:48:57.865Z,101759.28
2023-05-03T03:50:02.708Z,101772.56
2023-05-03T03:51:06.905Z,101767.22
2023-05-03T03:52:15.064Z,101752.75
2023-05-03T03:53:17.230Z,101768.03
2023-05-03T03:54:19.191Z,101777.94
2023-05-03T03:55:23.976Z,101778.78
2023-05-03T03:56:28.507Z,101778.78
2023-05-03T03:57:31.701Z,101788.66
2023-05-03T03:58:34.537Z,101794.88
2023-05-03T03:59:37.827Z,101786.81
2023-05-03T04:00:40.131Z,101792.19
2023-05-03T04:01:48.027Z,101792.91
2023-05-03T04:02:50.703Z,101780.47
2023-05-03T04:03:54.083Z,101792.91
2023-05-03T04:04:56.040Z,101798.41
2023-05-03T04:05:57.865Z,101794.88
2023-05-03T04:07:00.468Z,101798.53
2023-05-03T04:08:03.531Z,101791.72
2023-05-03T04:09:07.788Z,101801.09
2023-05-03T04:10:10.792Z,101810.97
2023-05-03T04:11:14.698Z,101804.75
2023-05-03T04:12:23.516Z,101809.00
2023-05-03T04:13:25.326Z,101805.31
2023-05-03T04:14:29.924Z,101810.84
2023-05-03T04:15:32.792Z,101809.00
2023-05-03T04:16:37.020Z,101819.72
2023-05-03T04:17:41.270Z,101812.81
2023-05-03T04:18:45.493Z,101804.16
2023-05-03T04:19:47.290Z,101814.63
2023-05-03T04:20:49.477Z,101817.03
2023-05-03T04:21:52.743Z,101814.34
2023-05-03T04:22:56.133Z,101817.03
2023-05-03T04:24:04.507Z,101815.06
2023-05-03T04:25:08.854Z,101822.13
2023-05-03T04:26:20.256Z,101822.03
2023-05-03T04:27:34.416Z,101807.03
2023-05-03T04:28:36.722Z,101823.56
2023-05-03T04:29:38.780Z,101823.56
2023-05-03T04:30:43.409Z,101828.09
2023-05-03T04:31:45.994Z,101826.25
2023-05-03T04:32:50.928Z,101825.44
2023-05-03T04:33:52.960Z,101828.22
2023-05-03T04:34:55.195Z,101824.81
2023-05-03T04:35:59.259Z,101831.63
2023-05-03T04:37:01.589Z,101821.44
2023-05-03T04:38:04.240Z,101834.03
2023-05-03T04:39:07.932Z,101834.03
2023-05-03T04:40:12.385Z,101835.78
2023-05-03T04:41:18.636Z,101839.19
2023-05-03T04:42:22.384Z,101846.38
2023-05-03T04:43:24.446Z,101840.16
2023-05-03T04:44:26.526Z,101842.69
2023-05-03T04:45:29.466Z,101841.84
2023-05-03T04:46:32.650Z,101844.53
2023-05-03T04:47:34.756Z,101808.19
2023-05-03T04:48:37.148Z,101825.81
2023-05-03T04:49:40.029Z,101832.50
2023-05-03T04:50:42.017Z,101838.69
2023-05-03T04:51:45.568Z,101838.97
2023-05-03T04:52:48.032Z,101841.38
2023-05-03T04:53:50.308Z,101849.75
2023-05-03T04:54:55.022Z,101856.00
2023-05-03T04:55:57.892Z,101856.00
2023-05-03T04:56:59.953Z,101847.47
2023-05-03T04:58:02.418Z,101863.31
2023-05-03T04:59:05.587Z,101853.31
2023-05-03T05:00:11.423Z,101853.31
2023-05-03T05:01:17.132Z,101843.69
2023-05-03T05:02:19.244Z,101852.31
2023-05-03T05:03:21.344Z,101851.47
2023-05-03T05:04:24.381Z,101856.00
2023-05-03T05:05:27.269Z,101859.66
2023-05-03T05:06:29.524Z,101860.50
2023-05-03T05:07:31.749Z,101853.31
2023-05-03T05:08:33.625Z,101861.34
2023-05-03T05:09:36.473Z,101861.34
2023-05-03T05:10:41.410Z,101863.06
2023-05-03T05:11:44.802Z,101873.53
2023-05-03T05:12:46.672Z,101852.59
2023-05-03T05:13:48.465Z,101861.81
2023-05-03T05:14:50.432Z,101872.41
2023-05-03T05:15:53.019Z,101871.31
2023-05-03T05:16:54.812Z,101875.41
2023-05-03T05:17:57.367Z,101877.13
2023-05-03T05:18:59.273Z,101880.41
2023-05-03T05:20:02.692Z,101884.53
2023-05-03T05:21:04.985Z,101872.19
2023-05-03T05:22:08.626Z,101882.13
2023-05-03T05:23:17.391Z,101878.22
2023-05-03T05:24:21.713Z,101884.19
2023-05-03T05:25:24.734Z,101873.28
2023-05-03T05:26:27.817Z,101886.50
2023-05-03T05:27:30.109Z,101895.00
2023-05-03T05:28:33.912Z,101878.63
2023-05-03T05:29:36.324Z,101889.09
2023-05-03T05:30:38.522Z,101886.16
2023-05-03T05:31:40.724Z,101879.53
2023-05-03T05:32:43.839Z,101891.69
2023-05-03T05:33:47.699Z,101877.81
2023-05-03T05:34:55.509Z,101880.94
2023-05-03T05:36:00.161Z,101889.91
2023-05-03T05:37:02.235Z,101893.19
2023-05-03T05:38:04.188Z,101892.19
2023-05-03T05:39:07.523Z,101896.31
2023-05-03T05:40:09.861Z,101898.88
2023-05-03T05:41:17.228Z,101885.56
2023-05-03T05:42:20.044Z,101900.03
2023-05-03T05:43:22.099Z,101899.88
2023-05-03T05:44:24.581Z,101899.03
2023-05-03T05:45:26.438Z,101895.09
2023-05-03T05:46:29.590Z,101906.56
2023-05-03T05:47:32.158Z,101885.00
2023-05-03T05:48:34.758Z,101905.28
2023-05-03T05:49:37.479Z,101909.69
2023-05-03T05:50:40.380Z,101897.22
2023-05-03T05:51:45.555Z,101905.72
2023-05-03T05:52:48.992Z,101900.34
2023-05-03T05:53:50.916Z,101898.94
2023-05-03T05:54:53.956Z,101915.09
2023-05-03T05:55:57.049Z,101906.16
2023-05-03T05:57:01.601Z,101907.88
2023-05-03T05:58:04.458Z,101915.81
2023-05-03T05:59:16.177Z,101907.47
2023-05-03T06:00:19.070Z,101893.59
2023-05-03T06:01:20.906Z,101904.63
2023-05-03T06:02:24.916Z,101918.94
2023-05-03T06:03:27.202Z,101906.31
2023-05-03T06:04:29.352Z,101912.56
2023-05-03T06:05:32.202Z,101907.91
2023-05-03T06:06:34.097Z,101902.41
2023-05-03T06:07:36.602Z,101890.47
2023-05-03T06:08:38.527Z,101902.41
2023-05-03T06:09:40.896Z,101913.03
2023-05-03T06:10:42.675Z,101914.72
2023-05-03T06:11:44.595Z,101902.78
2023-05-03T06:12:47.929Z,101904.69
2023-05-03T06:13:54.326Z,101912.63
2023-05-03T06:15:02.676Z,101896.03
2023-05-03T06:16:11.434Z,101915.03
2023-05-03T06:17:13.677Z,101897.75
2023-05-03T06:18:16.717Z,101894.56
2023-05-03T06:19:19.791Z,101916.88
2023-05-03T06:20:24.194Z,101917.72
2023-05-03T06:21:27.675Z,101918.56
2023-05-03T06:22:29.464Z,101919.44
2023-05-03T06:23:32.601Z,101917.72
2023-05-03T06:24:35.694Z,101922.50
2023-05-03T06:25:37.752Z,101920.53
2023-05-03T06:26:39.567Z,101921.97
2023-05-03T06:27:41.858Z,101936.41
2023-05-03T06:28:45.781Z,101923.22
2023-05-03T06:29:48.111Z,101925.09
2023-05-03T06:30:50.640Z,101937.25
2023-05-03T06:31:53.140Z,101909.72
2023-05-03T06:32:55.539Z,101940.06
2023-05-03T06:33:57.363Z,101926.50
2023-05-03T06:35:02.317Z,101941.66
2023-05-03T06:36:05.039Z,101936.13
2023-05-03T06:37:06.978Z,101955.22
2023-05-03T06:38:09.297Z,101955.22
2023-05-03T06:39:11.600Z,101945.72
2023-05-03T06:40:13.589Z,101955.38
2023-05-03T06:41:15.489Z,101966.84
2023-05-03T06:42:17.826Z,101952.53
2023-05-03T06:43:21.064Z,101963.28
2023-05-03T06:44:29.053Z,101962.28
2023-05-03T06:45:30.888Z,101958.34
2023-05-03T06:46:33.874Z,101968.66
2023-05-03T06:47:37.242Z,101960.75
2023-05-03T06:48:39.230Z,101968.66
2023-05-03T06:49:41.334Z,101975.91
2023-05-03T06:50:43.153Z,101971.78
2023-05-03T06:51:45.057Z,101980.56
2023-05-03T06:52:46.964Z,101975.03
2023-05-03T06:53:48.810Z,101976.88
2023-05-03T06:54:51.192Z,101982.25
2023-05-03T06:55:52.983Z,101981.41
2023-05-03T06:56:54.768Z,101989.47
2023-05-03T06:57:56.662Z,101994.00
2023-05-03T06:58:58.468Z,101983.25
2023-05-03T07:00:00.377Z,101997.69
2023-05-03T07:01:02.326Z,101996.81
2023-05-03T07:02:04.324Z,101999.50
2023-05-03T07:03:06.838Z,101986.69
2023-05-03T07:04:09.060Z,101995.25
2023-05-03T07:05:11.140Z,101990.25
2023-05-03T07:06:13.167Z,102006.03
2023-05-03T07:07:16.044Z,102005.16
2023-05-03T07:08:18.006Z,102010.53
2023-05-03T07:09:26.089Z,102007.00
2023-05-03T07:10:34.602Z,101998.19
2023-05-03T07:11:39.290Z,102007.72
2023-05-03T07:12:41.232Z,102006.03
2023-05-03T07:13:42.993Z,102011.41
2023-05-03T07:14:45.038Z,101998.31
2023-05-03T07:15:47.087Z,102008.00
2023-05-03T07:16:49.076Z,102014.22
2023-05-03T07:17:51.031Z,102014.22
2023-05-03T07:18:52.881Z,102027.78
2023-05-03T07:19:54.675Z,102022.63
2023-05-03T07:20:56.882Z,102017.25
2023-05-03T07:21:59.051Z,102019.69
2023-05-03T07:23:01.878Z,102025.09
2023-05-03T07:24:03.764Z,102016.06
2023-05-03T07:25:06.003Z,102033.16
2023-05-03T07:26:08.547Z,102021.56
2023-05-03T07:27:10.586Z,102017.00
2023-05-03T07:28:12.427Z,102024.34
2023-05-03T07:29:14.194Z,102025.19
2023-05-03T07:30:16.134Z,102021.09
2023-05-03T07:31:18.012Z,102034.25
2023-05-03T07:32:19.887Z,102032.56
2023-05-03T07:33:21.956Z,102037.06
2023-05-03T07:34:24.050Z,102028.16
2023-05-03T07:35:27.244Z,102039.75
2023-05-03T07:36:29.057Z,102035.34
2023-05-03T07:37:31.591Z,102031.69
2023-05-03T07:38:34.395Z,102031.69
2023-05-03T07:39:36.527Z,102032.56
2023-05-03T07:40:38.388Z,102035.34
2023-05-03T07:41:40.164Z,102028.28
2023-05-03T07:42:42.075Z,102038.03
2023-05-03T07:43:43.987Z,102036.34
2023-05-03T07:44:45.805Z,102040.88
2023-05-03T07:45:47.631Z,102046.09
2023-05-03T07:46:49.479Z,102047.09
2023-05-03T07:47:51.582Z,102049.78
2023-05-03T07:48:53.412Z,102027.38
2023-05-03T07:49:55.256Z,102049.78
2023-05-03T07:50:57.167Z,102048.78
2023-05-03T07:51:58.940Z,102042.97
2023-05-03T07:53:00.684Z,102051.50
2023-05-03T07:54:03.095Z,102066.63
2023-05-03T07:55:06.880Z,102052.19
2023-05-03T07:56:08.599Z,102068.50
2023-05-03T07:57:10.833Z,102062.25
2023-05-03T07:58:12.612Z,102064.47
2023-05-03T07:59:14.796Z,102073.16
2023-05-03T08:00:17.963Z,102079.34
2023-05-03T08:01:21.160Z,102084.72
2023-05-03T08:02:23.121Z,102083.75
2023-05-03T08:03:25.163Z,102080.22
2023-05-03T08:04:27.319Z,102083.75
2023-05-03T08:05:29.466Z,102069.13
2023-05-03T08:06:31.897Z,102075.69
2023-05-03T08:07:34.224Z,102084.63
2023-05-03T08:08:36.593Z,102082.75
2023-05-03T08:09:38.477Z,102084.63
2023-05-03T08:10:40.704Z,102068.41
2023-05-03T08:11:44.215Z,102073.41
2023-05-03T08:12:46.751Z,102090.13
2023-05-03T08:13:48.528Z,102094.50
2023-05-03T08:14:52.013Z,102089.13
2023-05-03T08:15:54.029Z,102098.06
2023-05-03T08:16:55.845Z,102096.19
2023-05-03T08:17:57.704Z,102095.38
2023-05-03T08:18:59.591Z,102100.16
2023-05-03T08:20:01.588Z,102099.88
2023-05-03T08:21:03.627Z,102101.84
2023-05-03T08:22:05.775Z,102109.91
2023-05-03T08:23:08.072Z,102093.34
2023-05-03T08:24:10.839Z,102091.25
2023-05-03T08:25:12.943Z,102080.88
2023-05-03T08:26:14.819Z,102095.22
2023-05-03T08:27:17.432Z,102096.47
2023-05-03T08:28:19.333Z,102086.44
2023-05-03T08:29:21.253Z,102098.91
2023-05-03T08:30:23.167Z,102090.81
2023-05-03T08:31:25.083Z,102093.53
2023-05-03T08:32:27.146Z,102098.19
2023-05-03T08:33:29.037Z,102097.06
2023-05-03T08:34:31.073Z,102105.97
2023-05-03T08:35:32.953Z,102095.50
2023-05-03T08:36:35.769Z,102104.16
2023-05-03T08:37:39.247Z,102097.06
2023-05-03T08:38:41.317Z,102085.41
2023-05-03T08:39:43.152Z,102092.53
2023-05-03T08:40:48.289Z,102095.22
2023-05-03T08:41:51.100Z,102094.22
2023-05-03T08:42:55.496Z,102093.53
2023-05-03T08:43:59.006Z,102101.34
2023-05-03T08:45:01.075Z,102103.06
2023-05-03T08:46:03.351Z,102098.19
2023-05-03T08:47:06.794Z,102100.34
2023-05-03T08:48:08.862Z,102105.00
2023-05-03T08:49:12.764Z,102103.16
2023-05-03T08:50:16.103Z,102112.97
2023-05-03T08:51:18.391Z,102094.22
2023-05-03T08:52:21.300Z,102106.72
2023-05-03T08:53:23.686Z,102102.22
2023-05-03T08:54:25.816Z,102106.72
2023-05-03T08:55:27.567Z,102106.72
2023-05-03T08:56:34.640Z,102096.47
2023-05-03T08:57:37.003Z,102105.25
2023-05-03T08:58:39.132Z,102105.84
2023-05-03T08:59:57.234Z,102105.63
2023-05-03T09:01:07.318Z,102096.09
2023-05-03T09:02:10.331Z,102103.16
2023-05-03T09:03:12.639Z,102094.22
2023-05-03T09:04:15.259Z,102097.69
2023-05-03T09:05:17.385Z,102111.13
2023-05-03T09:06:26.103Z,102102.72
2023-05-03T09:07:28.135Z,102112.84
2023-05-03T09:08:31.161Z,102109.41
2023-05-03T09:09:32.966Z,102108.53
2023-05-03T09:10:38.581Z,102095.75
2023-05-03T09:11:40.470Z,102116.59
2023-05-03T09:12:45.619Z,102093.34
2023-05-03T09:13:47.510Z,102118.44
2023-05-03T09:14:50.503Z,102120.28
2023-05-03T09:15:57.157Z,102118.59
2023-05-03T09:17:15.381Z,102113.69
2023-05-03T09:18:21.180Z,102115.53
2023-05-03T09:19:24.402Z,102116.38
2023-05-03T09:20:36.992Z,102115.53
2023-05-03T09:21:40.812Z,102110.16
2023-05-03T09:22:54.425Z,102110.16
2023-05-03T09:23:56.521Z,102118.06
2023-05-03T09:25:00.088Z,102126.28
2023-05-03T09:26:02.218Z,102124.56
2023-05-03T09:27:19.204Z,102114.03
2023-05-03T09:28:21.664Z,102139.59
2023-05-03T09:29:28.175Z,102119.56
2023-05-03T09:30:30.220Z,102130.81
2023-05-03T09:31:33.994Z,102134.56
2023-05-03T09:32:48.325Z,102137.06
2023-05-03T09:33:50.260Z,102142.44
2023-05-03T09:34:52.036Z,102141.69
2023-05-03T09:36:02.610Z,102142.63
2023-05-03T09:37:04.733Z,102148.75
2023-05-03T09:38:06.624Z,102142.63
2023-05-03T09:39:17.398Z,102141.78
2023-05-03T09:40:19.466Z,102155.00
2023-05-03T09:41:29.133Z,102131.16
2023-05-03T09:42:31.150Z,102151.44
2023-05-03T09:43:33.546Z,102142.63
2023-05-03T09:44:48.916Z,102143.50
2023-05-03T09:45:50.865Z,102154.03
2023-05-03T09:47:06.141Z,102143.25
2023-05-03T09:48:08.857Z,102145.94
2023-05-03T09:49:10.669Z,102147.81
2023-05-03T09:50:12.775Z,102146.06
2023-05-03T09:51:14.597Z,102142.91
2023-05-03T09:52:16.616Z,102153.38
2023-05-03T09:53:21.609Z,102152.53
2023-05-03T09:54:25.787Z,102155.13
2023-05-03T09:55:28.306Z,102143.75
2023-05-03T09:56:31.192Z,102142.91
2023-05-03T09:57:33.566Z,102156.00
2023-05-03T09:58:36.280Z,102156.81
2023-05-03T09:59:39.680Z,102162.19
2023-05-03T10:00:43.851Z,102162.31
2023-05-03T10:01:46.106Z,102163.94
2023-05-03T10:02:50.699Z,102155.13
2023-05-03T10:03:57.893Z,102163.31
2023-05-03T10:04:59.878Z,102158.56
2023-05-03T10:06:04.741Z,102152.53
2023-05-03T10:07:13.325Z,102138.38
2023-05-03T10:08:35.073Z,102134.34
2023-05-03T10:09:40.504Z,102150.34
2023-05-03T10:10:44.756Z,102162.81
2023-05-03T10:11:50.448Z,102158.28
2023-05-03T10:12:54.031Z,102160.13
2023-05-03T10:13:56.546Z,102152.53
2023-05-03T10:15:01.480Z,102144.59
2023-05-03T10:16:08.472Z,102166.63
2023-05-03T10:17:17.400Z,102163.94
2023-05-03T10:18:21.580Z,102161.44
2023-05-03T10:19:44.858Z,102174.69
2023-05-03T10:20:52.472Z,102171.75
2023-05-03T10:22:07.319Z,102177.84
2023-05-03T10:23:10.951Z,102174.28
2023-05-03T10:24:16.921Z,102180.78
2023-05-03T10:25:18.734Z,102170.38
2023-05-03T10:26:22.519Z,102180.91
2023-05-03T10:27:24.599Z,102177.38
2023-05-03T10:28:26.470Z,102172.13
2023-05-03T10:29:37.228Z,102184.69
2023-05-03T10:30:40.468Z,102184.56
2023-05-03T10:31:47.290Z,102188.25
2023-05-03T10:32:49.485Z,102182.75
2023-05-03T10:33:51.397Z,102169.78
2023-05-03T10:34:59.681Z,102176.63
2023-05-03T10:36:06.587Z,102172.47
2023-05-03T10:37:11.061Z,102175.53
2023-05-03T10:38:17.343Z,102166.81
2023-05-03T10:39:20.700Z,102176.41
2023-05-03T10:40:23.169Z,102182.75
2023-05-03T10:41:26.637Z,102176.50
2023-05-03T10:42:28.484Z,102191.78
2023-05-03T10:43:30.638Z,102184.69
2023-05-03T10:44:39.930Z,102189.09
2023-05-03T10:45:43.907Z,102184.56
2023-05-03T10:46:46.582Z,102182.50
2023-05-03T10:48:28.496Z,102197.13
2023-05-03T10:49:30.484Z,102199.91
2023-05-03T10:50:32.217Z,102197.63
2023-05-03T10:51:37.126Z,102188.25
2023-05-03T10:52:39.226Z,102189.84
2023-05-03T10:53:42.804Z,102198.88
2023-05-03T10:54:44.600Z,102196.41
2023-05-03T10:56:08.187Z,102191.03
2023-05-03T10:57:12.102Z,102204.84
2023-05-03T10:58:16.710Z,102196.91
2023-05-03T10:59:18.948Z,102203.28
2023-05-03T11:00:33.002Z,102202.53
2023-05-03T11:01:36.280Z,102203.28
2023-05-03T11:02:43.154Z,102195.81
2023-05-03T11:04:08.511Z,102205.00
2023-05-03T11:05:13.377Z,102195.56
2023-05-03T11:06:35.920Z,102211.09
2023-05-03T11:07:38.049Z,102203.75
2023-05-03T11:08:40.317Z,102186.91
2023-05-03T11:09:42.425Z,102210.47
2023-05-03T11:10:45.890Z,102200.81
2023-05-03T11:11:47.773Z,102201.78
2023-05-03T11:12:49.904Z,102203.50
2023-05-03T11:13:52.039Z,102168.53
2023-05-03T11:14:53.853Z,102203.50
2023-05-03T11:15:56.471Z,102208.91
2023-05-03T11:16:58.777Z,102214.28
2023-05-03T11:18:01.202Z,102208.91
2023-05-03T11:19:03.655Z,102207.16
2023-05-03T11:20:10.024Z,102201.31
2023-05-03T11:21:12.130Z,102205.22
2023-05-03T11:22:14.204Z,102213.28
2023-05-03T11:23:16.220Z,102207.91
2023-05-03T11:24:18.097Z,102210.59
2023-05-03T11:25:20.068Z,102200.34
2023-05-03T11:26:26.318Z,102204.38
2023-05-03T11:27:28.628Z,102199.84
2023-05-03T11:28:30.428Z,102188.59
2023-05-03T11:29:33.101Z,102202.53
2023-05-03T11:30:36.017Z,102192.75
2023-05-03T11:31:37.976Z,102200.81
2023-05-03T11:32:42.211Z,102197.16
2023-05-03T11:33:45.079Z,102198.88
2023-05-03T11:34:48.449Z,102198.88
2023-05-03T11:35:50.541Z,102192.00
2023-05-03T11:36:52.481Z,102198.88
2023-05-03T11:37:54.495Z,102195.34
2023-05-03T11:38:56.281Z,102191.78
2023-05-03T11:39:58.815Z,102201.56
2023-05-03T11:41:09.377Z,102212.34
2023-05-03T11:42:11.371Z,102207.69
2023-05-03T11:43:13.367Z,102206.81
2023-05-03T11:44:17.595Z,102206.81
2023-05-03T11:45:23.252Z,102209.50
2023-05-03T11:46:28.017Z,102197.91
2023-05-03T11:47:30.145Z,102201.31
2023-05-03T11:48:33.473Z,102198.63
2023-05-03T11:49:35.844Z,102199.63
2023-05-03T11:50:47.741Z,102194.22
2023-05-03T11:51:54.330Z,102204.84
2023-05-03T11:52:57.081Z,102196.66
2023-05-03T11:54:12.893Z,102194.69
2023-05-03T11:55:22.927Z,102206.16
2023-05-03T11:56:25.303Z,102199.91
2023-05-03T11:57:27.461Z,102191.13
2023-05-03T11:58:29.248Z,102201.06
2023-05-03T11:59:39.134Z,102203.03
2023-05-03T12:00:45.774Z,102215.47
2023-05-03T12:01:49.598Z,102181.31
2023-05-03T12:02:52.116Z,102215.47
2023-05-03T12:04:02.635Z,102217.19
2023-05-03T12:05:08.482Z,102217.19
2023-05-03T12:06:12.699Z,102219.88
2023-05-03T12:07:19.390Z,102224.38
2023-05-03T12:08:30.197Z,102227.06
2023-05-03T12:09:33.231Z,102218.88